Algarkirk, United Kingdom
Current Conditions -  °F | °C
As of 1:50 PM on Monday 20 Oct 2014 (Local Time) from EGXC Reporting Station
Broken Clouds Broken Clouds  
Wind Chill: 55°   Ceiling: 6000
Heat Index: 55°   Visibility: 6mi
Dew Point: 52°   Wind: 10mph
Humidity: 88%   Direction: 230°SW
Pressure: 29.88"   Gusts: NA
Location:  52.93°N, 0.03°W
Report Text: EGXC 201250Z 23009KT 9999 FEW020 SCT040 BKN060 13/11 Q1012 BLU NOSIG
Loading
Personal Weather Stations






























Interactive Weather Map New forecast layout! Learn more

10-Day Weather Forecast

Advertisements
Track Severe Weather on mobile